sensor_id;sensor_type;location;lat;lon;timestamp;P1;durP1;ratioP1;P2;durP2;ratioP2
11111;SDS011;5609;49.466;8.468;2023-07-13T00:02:23;3.30;;;1.67;;
11111;SDS011;5609;49.466;8.468;2023-07-13T00:04:51;3.43;;;1.40;;
11111;SDS011;5609;49.466;8.468;2023-07-13T00:07:21;1.83;;;1.37;;
11111;SDS011;5609;49.466;8.468;2023-07-13T00:09:48;2.23;;;1.50;;
11111;SDS011;5609;49.466;8.468;2023-07-13T00:12:23;1.90;;;1.50;;
11111;SDS011;5609;49.466;8.468;2023-07-13T00:14:50;1.93;;;1.37;;
11111;SDS011;5609;49.466;8.468;2023-07-13T00:17:17;4.10;;;1.50;;
11111;SDS011;5609;49.466;8.468;2023-07-13T00:19:44;2.60;;;1.40;;
11111;SDS011;5609;49.466;8.468;2023-07-13T00:22:11;3.33;;;1.43;;
11111;SDS011;5609;49.466;8.468;2023-07-13T00:24:40;2.43;;;1.37;;
11111;SDS011;5609;49.466;8.468;2023-07-13T00:27:07;3.93;;;1.60;;
11111;SDS011;5609;49.466;8.468;2023-07-13T00:29:36;2.97;;;1.60;;
11111;SDS011;5609;49.466;8.468;2023-07-13T00:32:05;2.30;;;1.50;;
11111;SDS011;5609;49.466;8.468;2023-07-13T00:34:34;3.93;;;1.70;;
11111;SDS011;5609;49.466;8.468;2023-07-13T00:37:04;2.20;;;1.53;;
11111;SDS011;5609;49.466;8.468;2023-07-13T00:39:32;3.77;;;1.50;;
11111;SDS011;5609;49.466;8.468;2023-07-13T00:42:01;2.93;;;1.77;;
11111;SDS011;5609;49.466;8.468;2023-07-13T00:44:29;2.70;;;1.60;;
11111;SDS011;5609;49.466;8.468;2023-07-13T00:46:56;3.10;;;1.50;;
11111;SDS011;5609;49.466;8.468;2023-07-13T00:49:24;2.50;;;1.70;;
11111;SDS011;5609;49.466;8.468;2023-07-13T00:51:53;3.50;;;1.73;;
11111;SDS011;5609;49.466;8.468;2023-07-13T00:54:22;3.20;;;1.70;;
11111;SDS011;5609;49.466;8.468;2023-07-13T00:56:52;2.60;;;1.53;;
11111;SDS011;5609;49.466;8.468;2023-07-13T00:59:21;2.43;;;1.50;;
11111;SDS011;5609;49.466;8.468;2023-07-13T01:01:49;2.07;;;1.60;;
11111;SDS011;5609;49.466;8.468;2023-07-13T01:04:16;3.57;;;1.70;;
11111;SDS011;5609;49.466;8.468;2023-07-13T01:06:44;4.13;;;1.80;;
11111;SDS011;5609;49.466;8.468;2023-07-13T01:09:12;4.23;;;1.90;;
11111;SDS011;5609;49.466;8.468;2023-07-13T01:11:41;2.70;;;1.67;;
11111;SDS011;5609;49.466;8.468;2023-07-13T01:14:09;5.10;;;1.83;;
11111;SDS011;5609;49.466;8.468;2023-07-13T01:16:39;3.63;;;1.63;;
11111;SDS011;5609;49.466;8.468;2023-07-13T01:19:10;3.33;;;1.83;;
11111;SDS011;5609;49.466;8.468;2023-07-13T01:21:40;2.43;;;1.80;;
11111;SDS011;5609;49.466;8.468;2023-07-13T01:24:08;2.07;;;1.70;;
11111;SDS011;5609;49.466;8.468;2023-07-13T01:26:35;2.80;;;1.80;;
11111;SDS011;5609;49.466;8.468;2023-07-13T01:29:02;2.30;;;1.90;;
11111;SDS011;5609;49.466;8.468;2023-07-13T01:31:30;2.87;;;1.87;;
11111;SDS011;5609;49.466;8.468;2023-07-13T01:33:57;3.77;;;2.00;;
11111;SDS011;5609;49.466;8.468;2023-07-13T01:36:24;2.93;;;2.03;;
11111;SDS011;5609;49.466;8.468;2023-07-13T01:38:53;4.33;;;1.80;;
11111;SDS011;5609;49.466;8.468;2023-07-13T01:41:20;2.27;;;1.73;;
11111;SDS011;5609;49.466;8.468;2023-07-13T01:43:47;2.57;;;1.70;;
11111;SDS011;5609;49.466;8.468;2023-07-13T01:46:14;2.80;;;1.80;;
11111;SDS011;5609;49.466;8.468;2023-07-13T01:48:41;3.90;;;2.07;;
11111;SDS011;5609;49.466;8.468;2023-07-13T01:51:08;3.70;;;1.60;;
11111;SDS011;5609;49.466;8.468;2023-07-13T01:53:35;3.03;;;1.80;;
11111;SDS011;5609;49.466;8.468;2023-07-13T01:56:04;2.97;;;1.40;;
11111;SDS011;5609;49.466;8.468;2023-07-13T01:58:31;2.90;;;1.90;;
11111;SDS011;5609;49.466;8.468;2023-07-13T02:00:58;3.97;;;1.77;;
11111;SDS011;5609;49.466;8.468;2023-07-13T02:03:25;3.00;;;1.90;;
11111;SDS011;5609;49.466;8.468;2023-07-13T02:05:53;3.27;;;1.80;;
11111;SDS011;5609;49.466;8.468;2023-07-13T02:08:19;3.87;;;1.70;;
11111;SDS011;5609;49.466;8.468;2023-07-13T02:10:47;2.37;;;1.80;;
11111;SDS011;5609;49.466;8.468;2023-07-13T02:13:15;3.30;;;1.90;;
11111;SDS011;5609;49.466;8.468;2023-07-13T02:15:42;4.20;;;2.00;;
11111;SDS011;5609;49.466;8.468;2023-07-13T02:18:09;3.10;;;1.67;;
11111;SDS011;5609;49.466;8.468;2023-07-13T02:20:41;4.03;;;1.70;;
11111;SDS011;5609;49.466;8.468;2023-07-13T02:23:08;2.97;;;1.60;;
11111;SDS011;5609;49.466;8.468;2023-07-13T02:25:35;5.60;;;1.80;;
11111;SDS011;5609;49.466;8.468;2023-07-13T02:28:03;2.07;;;1.90;;
11111;SDS011;5609;49.466;8.468;2023-07-13T02:30:31;4.30;;;1.90;;
11111;SDS011;5609;49.466;8.468;2023-07-13T02:32:59;3.77;;;2.80;;
11111;SDS011;5609;49.466;8.468;2023-07-13T02:35:27;2.30;;;1.80;;
11111;SDS011;5609;49.466;8.468;2023-07-13T02:37:54;2.97;;;1.90;;
11111;SDS011;5609;49.466;8.468;2023-07-13T02:40:21;3.17;;;1.93;;
11111;SDS011;5609;49.466;8.468;2023-07-13T02:42:48;4.80;;;2.40;;
11111;SDS011;5609;49.466;8.468;2023-07-13T02:45:15;3.67;;;2.00;;
11111;SDS011;5609;49.466;8.468;2023-07-13T02:47:44;3.73;;;2.43;;
11111;SDS011;5609;49.466;8.468;2023-07-13T02:50:12;4.07;;;2.93;;
11111;SDS011;5609;49.466;8.468;2023-07-13T02:52:39;3.07;;;2.00;;
11111;SDS011;5609;49.466;8.468;2023-07-13T02:55:07;2.90;;;2.10;;
11111;SDS011;5609;49.466;8.468;2023-07-13T02:57:34;3.40;;;1.80;;
11111;SDS011;5609;49.466;8.468;2023-07-13T03:00:01;3.73;;;1.97;;
11111;SDS011;5609;49.466;8.468;2023-07-13T03:02:30;3.73;;;1.90;;
11111;SDS011;5609;49.466;8.468;2023-07-13T03:04:59;3.50;;;1.97;;
11111;SDS011;5609;49.466;8.468;2023-07-13T03:07:26;3.93;;;1.97;;
11111;SDS011;5609;49.466;8.468;2023-07-13T03:09:53;2.63;;;1.80;;
11111;SDS011;5609;49.466;8.468;2023-07-13T03:12:21;3.23;;;2.20;;
11111;SDS011;5609;49.466;8.468;2023-07-13T03:14:48;2.40;;;1.87;;
11111;SDS011;5609;49.466;8.468;2023-07-13T03:17:15;4.00;;;2.03;;
11111;SDS011;5609;49.466;8.468;2023-07-13T03:19:43;4.27;;;2.53;;
11111;SDS011;5609;49.466;8.468;2023-07-13T03:22:11;3.97;;;2.10;;
11111;SDS011;5609;49.466;8.468;2023-07-13T03:24:38;4.23;;;2.00;;
11111;SDS011;5609;49.466;8.468;2023-07-13T03:27:06;7.00;;;2.00;;
11111;SDS011;5609;49.466;8.468;2023-07-13T03:29:33;3.33;;;1.90;;
11111;SDS011;5609;49.466;8.468;2023-07-13T03:32:00;4.33;;;2.13;;
11111;SDS011;5609;49.466;8.468;2023-07-13T03:34:29;2.03;;;1.80;;
11111;SDS011;5609;49.466;8.468;2023-07-13T03:36:56;3.30;;;1.77;;
11111;SDS011;5609;49.466;8.468;2023-07-13T03:39:25;3.17;;;2.13;;
11111;SDS011;5609;49.466;8.468;2023-07-13T03:41:52;4.53;;;2.20;;
11111;SDS011;5609;49.466;8.468;2023-07-13T03:44:19;4.47;;;2.23;;
11111;SDS011;5609;49.466;8.468;2023-07-13T03:46:46;3.83;;;2.10;;
11111;SDS011;5609;49.466;8.468;2023-07-13T03:49:14;4.37;;;2.00;;
11111;SDS011;5609;49.466;8.468;2023-07-13T03:51:41;4.77;;;2.10;;
11111;SDS011;5609;49.466;8.468;2023-07-13T03:54:08;4.07;;;2.20;;
11111;SDS011;5609;49.466;8.468;2023-07-13T03:56:36;3.23;;;2.10;;
11111;SDS011;5609;49.466;8.468;2023-07-13T03:59:04;2.53;;;1.90;;
11111;SDS011;5609;49.466;8.468;2023-07-13T04:01:31;4.23;;;1.87;;
11111;SDS011;5609;49.466;8.468;2023-07-13T04:03:59;3.83;;;2.20;;
11111;SDS011;5609;49.466;8.468;2023-07-13T04:06:26;4.53;;;2.27;;
11111;SDS011;5609;49.466;8.468;2023-07-13T04:08:55;2.87;;;2.30;;
11111;SDS011;5609;49.466;8.468;2023-07-13T04:11:23;5.50;;;2.30;;
11111;SDS011;5609;49.466;8.468;2023-07-13T04:13:52;4.10;;;2.00;;
11111;SDS011;5609;49.466;8.468;2023-07-13T04:16:19;2.47;;;2.00;;
11111;SDS011;5609;49.466;8.468;2023-07-13T04:18:47;3.83;;;2.00;;
11111;SDS011;5609;49.466;8.468;2023-07-13T04:21:14;3.03;;;2.00;;
11111;SDS011;5609;49.466;8.468;2023-07-13T04:23:42;2.93;;;2.10;;
11111;SDS011;5609;49.466;8.468;2023-07-13T04:26:09;3.93;;;2.07;;
11111;SDS011;5609;49.466;8.468;2023-07-13T04:28:38;3.13;;;2.17;;
11111;SDS011;5609;49.466;8.468;2023-07-13T04:31:06;3.37;;;1.93;;
11111;SDS011;5609;49.466;8.468;2023-07-13T04:33:33;3.27;;;1.83;;
11111;SDS011;5609;49.466;8.468;2023-07-13T04:36:00;4.63;;;2.00;;
11111;SDS011;5609;49.466;8.468;2023-07-13T04:38:29;2.07;;;1.87;;
11111;SDS011;5609;49.466;8.468;2023-07-13T04:40:57;3.73;;;2.03;;
11111;SDS011;5609;49.466;8.468;2023-07-13T04:43:25;3.33;;;2.10;;
11111;SDS011;5609;49.466;8.468;2023-07-13T04:45:53;2.90;;;1.80;;
11111;SDS011;5609;49.466;8.468;2023-07-13T04:48:22;3.03;;;1.67;;
11111;SDS011;5609;49.466;8.468;2023-07-13T04:50:54;6.00;;;2.00;;
11111;SDS011;5609;49.466;8.468;2023-07-13T04:53:22;2.17;;;1.97;;
11111;SDS011;5609;49.466;8.468;2023-07-13T04:55:51;3.50;;;1.93;;
11111;SDS011;5609;49.466;8.468;2023-07-13T04:58:18;3.43;;;2.07;;
11111;SDS011;5609;49.466;8.468;2023-07-13T05:00:47;3.37;;;2.17;;
11111;SDS011;5609;49.466;8.468;2023-07-13T05:03:15;3.87;;;2.50;;
11111;SDS011;5609;49.466;8.468;2023-07-13T05:05:53;4.27;;;2.27;;
11111;SDS011;5609;49.466;8.468;2023-07-13T05:08:21;5.60;;;2.40;;
11111;SDS011;5609;49.466;8.468;2023-07-13T05:10:50;3.83;;;2.10;;
11111;SDS011;5609;49.466;8.468;2023-07-13T05:13:18;3.43;;;2.20;;
11111;SDS011;5609;49.466;8.468;2023-07-13T05:15:45;2.50;;;2.00;;
11111;SDS011;5609;49.466;8.468;2023-07-13T05:18:12;2.83;;;1.73;;
11111;SDS011;5609;49.466;8.468;2023-07-13T05:20:39;4.40;;;1.90;;
11111;SDS011;5609;49.466;8.468;2023-07-13T05:23:08;2.70;;;1.80;;
11111;SDS011;5609;49.466;8.468;2023-07-13T05:25:35;4.10;;;1.80;;
11111;SDS011;5609;49.466;8.468;2023-07-13T05:28:02;3.80;;;2.20;;
11111;SDS011;5609;49.466;8.468;2023-07-13T05:30:29;3.90;;;2.07;;
11111;SDS011;5609;49.466;8.468;2023-07-13T05:32:56;5.00;;;2.37;;
11111;SDS011;5609;49.466;8.468;2023-07-13T05:35:24;4.90;;;2.30;;
11111;SDS011;5609;49.466;8.468;2023-07-13T05:37:51;5.13;;;1.83;;
11111;SDS011;5609;49.466;8.468;2023-07-13T05:40:19;3.77;;;2.10;;
11111;SDS011;5609;49.466;8.468;2023-07-13T05:42:46;5.63;;;2.30;;
11111;SDS011;5609;49.466;8.468;2023-07-13T05:45:14;3.47;;;2.30;;
11111;SDS011;5609;49.466;8.468;2023-07-13T05:47:41;3.67;;;2.43;;
11111;SDS011;5609;49.466;8.468;2023-07-13T05:50:08;3.27;;;1.93;;
11111;SDS011;5609;49.466;8.468;2023-07-13T05:52:37;4.33;;;2.60;;
11111;SDS011;5609;49.466;8.468;2023-07-13T05:55:04;3.20;;;2.30;;
11111;SDS011;5609;49.466;8.468;2023-07-13T05:57:33;3.87;;;2.20;;
11111;SDS011;5609;49.466;8.468;2023-07-13T06:00:00;2.77;;;2.27;;
11111;SDS011;5609;49.466;8.468;2023-07-13T06:02:27;4.30;;;2.30;;
11111;SDS011;5609;49.466;8.468;2023-07-13T06:04:55;3.60;;;2.10;;
11111;SDS011;5609;49.466;8.468;2023-07-13T06:07:22;5.30;;;2.20;;
11111;SDS011;5609;49.466;8.468;2023-07-13T06:09:49;5.00;;;2.30;;
11111;SDS011;5609;49.466;8.468;2023-07-13T06:12:16;4.03;;;2.47;;
11111;SDS011;5609;49.466;8.468;2023-07-13T06:14:45;5.03;;;2.80;;
11111;SDS011;5609;49.466;8.468;2023-07-13T06:17:12;6.13;;;3.43;;
11111;SDS011;5609;49.466;8.468;2023-07-13T06:19:39;6.47;;;3.20;;
11111;SDS011;5609;49.466;8.468;2023-07-13T06:22:06;7.70;;;3.30;;
11111;SDS011;5609;49.466;8.468;2023-07-13T06:24:33;5.97;;;3.30;;
11111;SDS011;5609;49.466;8.468;2023-07-13T06:27:00;6.83;;;3.40;;
11111;SDS011;5609;49.466;8.468;2023-07-13T06:29:27;9.33;;;4.03;;
11111;SDS011;5609;49.466;8.468;2023-07-13T06:31:56;6.43;;;3.17;;
11111;SDS011;5609;49.466;8.468;2023-07-13T06:34:23;7.13;;;3.50;;
11111;SDS011;5609;49.466;8.468;2023-07-13T06:36:51;6.73;;;3.43;;
11111;SDS011;5609;49.466;8.468;2023-07-13T06:39:20;6.97;;;3.43;;
11111;SDS011;5609;49.466;8.468;2023-07-13T06:41:47;8.83;;;3.80;;
11111;SDS011;5609;49.466;8.468;2023-07-13T06:44:14;8.53;;;3.37;;
11111;SDS011;5609;49.466;8.468;2023-07-13T06:46:42;5.43;;;3.70;;
11111;SDS011;5609;49.466;8.468;2023-07-13T06:49:10;9.27;;;3.50;;
11111;SDS011;5609;49.466;8.468;2023-07-13T06:51:37;7.87;;;3.40;;
11111;SDS011;5609;49.466;8.468;2023-07-13T06:54:05;5.90;;;3.23;;
11111;SDS011;5609;49.466;8.468;2023-07-13T06:56:32;7.37;;;3.37;;
11111;SDS011;5609;49.466;8.468;2023-07-13T06:58:59;5.80;;;2.90;;
11111;SDS011;5609;49.466;8.468;2023-07-13T07:01:29;3.37;;;2.57;;
11111;SDS011;5609;49.466;8.468;2023-07-13T07:03:56;4.53;;;2.97;;
11111;SDS011;5609;49.466;8.468;2023-07-13T07:06:24;7.80;;;3.77;;
11111;SDS011;5609;49.466;8.468;2023-07-13T07:08:52;5.50;;;2.67;;
11111;SDS011;5609;49.466;8.468;2023-07-13T07:11:20;6.30;;;2.13;;
11111;SDS011;5609;49.466;8.468;2023-07-13T07:13:47;3.50;;;1.53;;
11111;SDS011;5609;49.466;8.468;2023-07-13T07:16:15;4.03;;;1.50;;
11111;SDS011;5609;49.466;8.468;2023-07-13T07:18:42;4.40;;;1.53;;
11111;SDS011;5609;49.466;8.468;2023-07-13T07:21:09;2.63;;;1.60;;
11111;SDS011;5609;49.466;8.468;2023-07-13T07:23:37;2.77;;;1.37;;
11111;SDS011;5609;49.466;8.468;2023-07-13T07:26:04;4.57;;;1.70;;
11111;SDS011;5609;49.466;8.468;2023-07-13T07:28:33;2.93;;;1.40;;
11111;SDS011;5609;49.466;8.468;2023-07-13T07:31:01;2.70;;;1.60;;
11111;SDS011;5609;49.466;8.468;2023-07-13T07:33:28;4.03;;;1.63;;
11111;SDS011;5609;49.466;8.468;2023-07-13T07:35:57;4.23;;;1.50;;
11111;SDS011;5609;49.466;8.468;2023-07-13T07:38:24;3.03;;;1.50;;
11111;SDS011;5609;49.466;8.468;2023-07-13T07:40:52;4.00;;;1.60;;
11111;SDS011;5609;49.466;8.468;2023-07-13T07:43:21;2.77;;;1.70;;
11111;SDS011;5609;49.466;8.468;2023-07-13T07:45:48;3.03;;;1.60;;
11111;SDS011;5609;49.466;8.468;2023-07-13T07:48:15;3.57;;;1.70;;
11111;SDS011;5609;49.466;8.468;2023-07-13T07:50:43;9.97;;;6.63;;
11111;SDS011;5609;49.466;8.468;2023-07-13T07:53:10;4.10;;;1.60;;
11111;SDS011;5609;49.466;8.468;2023-07-13T07:55:37;2.67;;;1.57;;
11111;SDS011;5609;49.466;8.468;2023-07-13T07:58:11;3.33;;;1.53;;
11111;SDS011;5609;49.466;8.468;2023-07-13T08:00:38;4.47;;;1.60;;
11111;SDS011;5609;49.466;8.468;2023-07-13T08:03:06;2.83;;;1.60;;
11111;SDS011;5609;49.466;8.468;2023-07-13T08:05:34;4.37;;;1.70;;
11111;SDS011;5609;49.466;8.468;2023-07-13T08:08:02;3.53;;;1.60;;
11111;SDS011;5609;49.466;8.468;2023-07-13T08:10:29;2.73;;;1.60;;
11111;SDS011;5609;49.466;8.468;2023-07-13T08:12:56;4.03;;;1.60;;
11111;SDS011;5609;49.466;8.468;2023-07-13T08:15:25;3.77;;;1.70;;
11111;SDS011;5609;49.466;8.468;2023-07-13T08:17:54;3.23;;;1.80;;
11111;SDS011;5609;49.466;8.468;2023-07-13T08:20:21;4.10;;;1.50;;
11111;SDS011;5609;49.466;8.468;2023-07-13T08:22:49;5.13;;;1.83;;
11111;SDS011;5609;49.466;8.468;2023-07-13T08:25:18;3.60;;;1.30;;
11111;SDS011;5609;49.466;8.468;2023-07-13T08:27:47;4.53;;;1.87;;
11111;SDS011;5609;49.466;8.468;2023-07-13T08:30:16;3.33;;;1.50;;
11111;SDS011;5609;49.466;8.468;2023-07-13T08:32:44;4.93;;;1.60;;
11111;SDS011;5609;49.466;8.468;2023-07-13T08:35:11;5.57;;;1.60;;
11111;SDS011;5609;49.466;8.468;2023-07-13T08:37:41;6.17;;;1.80;;
11111;SDS011;5609;49.466;8.468;2023-07-13T08:40:08;3.33;;;1.60;;
11111;SDS011;5609;49.466;8.468;2023-07-13T08:42:36;4.23;;;1.70;;
11111;SDS011;5609;49.466;8.468;2023-07-13T08:45:07;2.93;;;1.50;;
11111;SDS011;5609;49.466;8.468;2023-07-13T08:47:36;3.37;;;1.50;;
11111;SDS011;5609;49.466;8.468;2023-07-13T08:50:08;2.73;;;1.40;;
11111;SDS011;5609;49.466;8.468;2023-07-13T08:52:38;3.80;;;1.40;;
11111;SDS011;5609;49.466;8.468;2023-07-13T08:55:13;2.37;;;1.40;;
11111;SDS011;5609;49.466;8.468;2023-07-13T08:57:42;3.13;;;1.30;;
11111;SDS011;5609;49.466;8.468;2023-07-13T09:00:10;4.43;;;1.70;;
11111;SDS011;5609;49.466;8.468;2023-07-13T09:02:41;2.03;;;1.40;;
11111;SDS011;5609;49.466;8.468;2023-07-13T09:05:12;2.13;;;1.30;;
11111;SDS011;5609;49.466;8.468;2023-07-13T09:07:43;2.20;;;1.33;;
11111;SDS011;5609;49.466;8.468;2023-07-13T09:10:14;2.90;;;1.60;;
11111;SDS011;5609;49.466;8.468;2023-07-13T09:12:50;2.93;;;1.40;;
11111;SDS011;5609;49.466;8.468;2023-07-13T09:15:24;2.50;;;1.27;;
11111;SDS011;5609;49.466;8.468;2023-07-13T09:17:56;3.83;;;1.67;;
11111;SDS011;5609;49.466;8.468;2023-07-13T09:20:26;3.77;;;1.50;;
11111;SDS011;5609;49.466;8.468;2023-07-13T09:22:55;5.57;;;1.67;;
11111;SDS011;5609;49.466;8.468;2023-07-13T09:25:24;3.90;;;1.60;;
11111;SDS011;5609;49.466;8.468;2023-07-13T09:27:54;1.50;;;1.30;;
11111;SDS011;5609;49.466;8.468;2023-07-13T09:30:23;3.30;;;1.53;;
11111;SDS011;5609;49.466;8.468;2023-07-13T09:32:54;3.07;;;1.50;;
11111;SDS011;5609;49.466;8.468;2023-07-13T09:35:24;5.30;;;1.53;;
11111;SDS011;5609;49.466;8.468;2023-07-13T09:37:56;2.93;;;1.30;;
11111;SDS011;5609;49.466;8.468;2023-07-13T09:40:29;4.90;;;1.70;;
11111;SDS011;5609;49.466;8.468;2023-07-13T09:43:00;2.47;;;1.40;;
11111;SDS011;5609;49.466;8.468;2023-07-13T09:45:30;4.37;;;1.70;;
11111;SDS011;5609;49.466;8.468;2023-07-13T09:48:03;3.57;;;1.30;;
11111;SDS011;5609;49.466;8.468;2023-07-13T09:50:31;2.50;;;1.40;;
11111;SDS011;5609;49.466;8.468;2023-07-13T09:53:00;3.17;;;1.40;;
11111;SDS011;5609;49.466;8.468;2023-07-13T09:55:29;2.77;;;1.50;;
11111;SDS011;5609;49.466;8.468;2023-07-13T09:57:57;6.47;;;1.77;;
11111;SDS011;5609;49.466;8.468;2023-07-13T10:00:25;3.97;;;1.67;;
11111;SDS011;5609;49.466;8.468;2023-07-13T10:03:00;5.20;;;1.63;;
11111;SDS011;5609;49.466;8.468;2023-07-13T10:05:28;3.60;;;1.70;;
11111;SDS011;5609;49.466;8.468;2023-07-13T10:08:02;4.53;;;1.60;;
11111;SDS011;5609;49.466;8.468;2023-07-13T10:10:32;2.90;;;1.50;;
11111;SDS011;5609;49.466;8.468;2023-07-13T10:13:00;5.27;;;1.70;;
11111;SDS011;5609;49.466;8.468;2023-07-13T10:15:29;4.20;;;1.53;;
11111;SDS011;5609;49.466;8.468;2023-07-13T10:17:56;3.73;;;1.60;;
11111;SDS011;5609;49.466;8.468;2023-07-13T10:20:24;1.73;;;1.30;;
11111;SDS011;5609;49.466;8.468;2023-07-13T10:22:54;2.70;;;1.37;;
11111;SDS011;5609;49.466;8.468;2023-07-13T10:25:24;3.63;;;1.30;;
11111;SDS011;5609;49.466;8.468;2023-07-13T10:27:52;3.00;;;1.57;;
11111;SDS011;5609;49.466;8.468;2023-07-13T10:30:21;3.43;;;1.40;;
11111;SDS011;5609;49.466;8.468;2023-07-13T10:32:50;4.47;;;1.40;;
11111;SDS011;5609;49.466;8.468;2023-07-13T10:35:19;3.13;;;1.20;;
11111;SDS011;5609;49.466;8.468;2023-07-13T10:37:48;4.37;;;1.53;;
11111;SDS011;5609;49.466;8.468;2023-07-13T10:40:17;4.43;;;1.30;;
11111;SDS011;5609;49.466;8.468;2023-07-13T10:42:48;2.67;;;1.40;;
11111;SDS011;5609;49.466;8.468;2023-07-13T10:45:18;3.30;;;1.27;;
11111;SDS011;5609;49.466;8.468;2023-07-13T10:47:46;4.60;;;1.40;;
11111;SDS011;5609;49.466;8.468;2023-07-13T10:50:15;4.60;;;1.33;;
11111;SDS011;5609;49.466;8.468;2023-07-13T10:52:45;2.33;;;1.30;;
11111;SDS011;5609;49.466;8.468;2023-07-13T10:58:01;1.63;;;1.30;;
11111;SDS011;5609;49.466;8.468;2023-07-13T11:00:30;2.77;;;1.30;;
11111;SDS011;5609;49.466;8.468;2023-07-13T11:02:59;2.80;;;1.10;;
11111;SDS011;5609;49.466;8.468;2023-07-13T11:05:29;3.00;;;1.30;;
11111;SDS011;5609;49.466;8.468;2023-07-13T11:08:02;4.53;;;1.33;;
11111;SDS011;5609;49.466;8.468;2023-07-13T11:10:47;2.80;;;1.30;;
11111;SDS011;5609;49.466;8.468;2023-07-13T11:16:13;4.00;;;1.40;;
11111;SDS011;5609;49.466;8.468;2023-07-13T11:18:40;2.70;;;1.20;;
11111;SDS011;5609;49.466;8.468;2023-07-13T11:21:15;2.43;;;1.40;;
11111;SDS011;5609;49.466;8.468;2023-07-13T11:23:43;2.33;;;1.40;;
11111;SDS011;5609;49.466;8.468;2023-07-13T11:28:54;2.80;;;1.30;;
11111;SDS011;5609;49.466;8.468;2023-07-13T11:31:25;2.77;;;1.27;;
11111;SDS011;5609;49.466;8.468;2023-07-13T11:33:53;2.10;;;1.30;;
11111;SDS011;5609;49.466;8.468;2023-07-13T11:36:20;3.13;;;1.40;;
11111;SDS011;5609;49.466;8.468;2023-07-13T11:38:51;4.00;;;1.33;;
11111;SDS011;5609;49.466;8.468;2023-07-13T11:41:23;1.97;;;1.30;;
11111;SDS011;5609;49.466;8.468;2023-07-13T11:43:53;3.50;;;1.30;;
11111;SDS011;5609;49.466;8.468;2023-07-13T11:46:21;2.23;;;1.30;;
11111;SDS011;5609;49.466;8.468;2023-07-13T11:48:51;3.27;;;1.20;;
11111;SDS011;5609;49.466;8.468;2023-07-13T11:51:19;5.50;;;1.47;;
11111;SDS011;5609;49.466;8.468;2023-07-13T11:53:48;2.50;;;1.40;;
11111;SDS011;5609;49.466;8.468;2023-07-13T11:56:16;3.47;;;1.50;;
11111;SDS011;5609;49.466;8.468;2023-07-13T11:58:43;3.40;;;1.40;;
11111;SDS011;5609;49.466;8.468;2023-07-13T12:01:15;2.87;;;1.33;;
11111;SDS011;5609;49.466;8.468;2023-07-13T12:03:44;2.87;;;1.30;;
11111;SDS011;5609;49.466;8.468;2023-07-13T12:06:21;3.53;;;1.47;;
11111;SDS011;5609;49.466;8.468;2023-07-13T12:08:48;3.60;;;1.40;;
11111;SDS011;5609;49.466;8.468;2023-07-13T12:11:17;1.73;;;1.10;;
11111;SDS011;5609;49.466;8.468;2023-07-13T12:13:47;3.63;;;1.30;;
11111;SDS011;5609;49.466;8.468;2023-07-13T12:16:16;1.50;;;1.13;;
11111;SDS011;5609;49.466;8.468;2023-07-13T12:18:44;5.93;;;1.70;;
11111;SDS011;5609;49.466;8.468;2023-07-13T12:21:17;2.90;;;1.40;;
11111;SDS011;5609;49.466;8.468;2023-07-13T12:23:48;2.87;;;1.30;;
11111;SDS011;5609;49.466;8.468;2023-07-13T12:26:15;1.97;;;1.10;;
11111;SDS011;5609;49.466;8.468;2023-07-13T12:28:45;2.33;;;1.30;;
11111;SDS011;5609;49.466;8.468;2023-07-13T12:31:22;3.07;;;1.30;;
11111;SDS011;5609;49.466;8.468;2023-07-13T12:33:56;4.53;;;1.60;;
11111;SDS011;5609;49.466;8.468;2023-07-13T12:36:23;2.37;;;1.40;;
11111;SDS011;5609;49.466;8.468;2023-07-13T12:38:51;1.80;;;1.40;;
11111;SDS011;5609;49.466;8.468;2023-07-13T12:41:19;2.03;;;1.33;;
11111;SDS011;5609;49.466;8.468;2023-07-13T12:43:55;1.40;;;1.27;;
11111;SDS011;5609;49.466;8.468;2023-07-13T12:46:23;3.10;;;1.43;;
11111;SDS011;5609;49.466;8.468;2023-07-13T12:48:53;3.13;;;1.60;;
11111;SDS011;5609;49.466;8.468;2023-07-13T12:51:21;2.10;;;1.27;;
11111;SDS011;5609;49.466;8.468;2023-07-13T12:53:50;2.97;;;1.57;;
11111;SDS011;5609;49.466;8.468;2023-07-13T12:56:21;2.70;;;1.30;;
11111;SDS011;5609;49.466;8.468;2023-07-13T12:58:48;2.60;;;1.60;;
11111;SDS011;5609;49.466;8.468;2023-07-13T13:01:19;1.80;;;1.17;;
11111;SDS011;5609;49.466;8.468;2023-07-13T13:03:47;3.70;;;1.57;;
11111;SDS011;5609;49.466;8.468;2023-07-13T13:06:21;2.53;;;1.43;;
11111;SDS011;5609;49.466;8.468;2023-07-13T13:08:49;2.40;;;1.33;;
11111;SDS011;5609;49.466;8.468;2023-07-13T13:11:22;2.20;;;1.50;;
11111;SDS011;5609;49.466;8.468;2023-07-13T13:13:52;3.63;;;1.23;;
11111;SDS011;5609;49.466;8.468;2023-07-13T13:16:21;2.93;;;1.60;;
11111;SDS011;5609;49.466;8.468;2023-07-13T13:18:49;4.37;;;1.60;;
11111;SDS011;5609;49.466;8.468;2023-07-13T13:21:17;3.13;;;1.43;;
11111;SDS011;5609;49.466;8.468;2023-07-13T13:23:45;1.90;;;1.40;;
11111;SDS011;5609;49.466;8.468;2023-07-13T13:26:12;2.53;;;1.40;;
11111;SDS011;5609;49.466;8.468;2023-07-13T13:31:23;3.03;;;1.40;;
11111;SDS011;5609;49.466;8.468;2023-07-13T13:33:51;2.93;;;1.50;;
11111;SDS011;5609;49.466;8.468;2023-07-13T13:36:19;2.50;;;1.43;;
11111;SDS011;5609;49.466;8.468;2023-07-13T13:38:47;3.90;;;1.40;;
11111;SDS011;5609;49.466;8.468;2023-07-13T13:41:16;2.93;;;1.20;;
11111;SDS011;5609;49.466;8.468;2023-07-13T13:43:43;2.37;;;1.20;;
11111;SDS011;5609;49.466;8.468;2023-07-13T13:46:14;2.67;;;1.30;;
11111;SDS011;5609;49.466;8.468;2023-07-13T13:48:43;2.80;;;1.60;;
11111;SDS011;5609;49.466;8.468;2023-07-13T13:51:16;3.57;;;1.43;;
11111;SDS011;5609;49.466;8.468;2023-07-13T13:53:45;2.93;;;1.50;;
11111;SDS011;5609;49.466;8.468;2023-07-13T13:56:12;2.40;;;1.30;;
11111;SDS011;5609;49.466;8.468;2023-07-13T13:58:40;4.10;;;1.50;;
11111;SDS011;5609;49.466;8.468;2023-07-13T14:01:10;4.00;;;1.50;;
11111;SDS011;5609;49.466;8.468;2023-07-13T14:03:39;2.30;;;1.30;;
11111;SDS011;5609;49.466;8.468;2023-07-13T14:06:08;1.97;;;1.30;;
11111;SDS011;5609;49.466;8.468;2023-07-13T14:08:38;3.23;;;1.50;;
11111;SDS011;5609;49.466;8.468;2023-07-13T14:11:05;2.60;;;1.47;;
11111;SDS011;5609;49.466;8.468;2023-07-13T14:13:35;3.87;;;1.63;;
11111;SDS011;5609;49.466;8.468;2023-07-13T14:16:04;2.93;;;1.60;;
11111;SDS011;5609;49.466;8.468;2023-07-13T14:18:38;3.47;;;1.43;;
11111;SDS011;5609;49.466;8.468;2023-07-13T14:21:10;2.93;;;1.80;;
11111;SDS011;5609;49.466;8.468;2023-07-13T14:23:37;5.10;;;1.40;;
11111;SDS011;5609;49.466;8.468;2023-07-13T14:26:07;3.17;;;1.50;;
11111;SDS011;5609;49.466;8.468;2023-07-13T14:28:35;1.60;;;1.40;;
11111;SDS011;5609;49.466;8.468;2023-07-13T14:31:04;3.60;;;1.73;;
11111;SDS011;5609;49.466;8.468;2023-07-13T14:33:31;3.27;;;1.50;;
11111;SDS011;5609;49.466;8.468;2023-07-13T14:35:59;3.43;;;1.60;;
11111;SDS011;5609;49.466;8.468;2023-07-13T14:38:28;3.00;;;1.43;;
11111;SDS011;5609;49.466;8.468;2023-07-13T14:40:55;2.07;;;1.40;;
11111;SDS011;5609;49.466;8.468;2023-07-13T14:43:22;2.47;;;1.40;;
11111;SDS011;5609;49.466;8.468;2023-07-13T14:45:53;2.47;;;1.30;;
11111;SDS011;5609;49.466;8.468;2023-07-13T14:48:22;2.40;;;1.50;;
11111;SDS011;5609;49.466;8.468;2023-07-13T14:50:53;2.03;;;1.50;;
11111;SDS011;5609;49.466;8.468;2023-07-13T14:53:20;2.13;;;1.20;;
11111;SDS011;5609;49.466;8.468;2023-07-13T14:55:49;4.20;;;1.60;;
11111;SDS011;5609;49.466;8.468;2023-07-13T14:58:18;2.90;;;1.43;;
11111;SDS011;5609;49.466;8.468;2023-07-13T15:00:46;3.70;;;1.60;;
11111;SDS011;5609;49.466;8.468;2023-07-13T15:03:15;2.97;;;1.40;;
11111;SDS011;5609;49.466;8.468;2023-07-13T15:05:46;2.10;;;1.50;;
11111;SDS011;5609;49.466;8.468;2023-07-13T15:08:13;3.57;;;1.47;;
11111;SDS011;5609;49.466;8.468;2023-07-13T15:10:41;4.07;;;1.60;;
11111;SDS011;5609;49.466;8.468;2023-07-13T15:13:15;2.13;;;1.40;;
11111;SDS011;5609;49.466;8.468;2023-07-13T15:15:43;3.40;;;1.60;;
11111;SDS011;5609;49.466;8.468;2023-07-13T15:18:11;3.60;;;1.40;;
11111;SDS011;5609;49.466;8.468;2023-07-13T15:20:38;2.97;;;1.60;;